Time;durP1;ratioP1;P1;durP2;ratioP2;P2;SDS_P1;SDS_P2;PMS_P1;PMS_P2;Temp;Humidity;BMP_temperature;BMP_pressure;BME280_temperature;BME280_humidity;BME280_pressure;Samples;Min_cycle;Max_cycle;Signal;HPM_P1;HPM_P2
2021/12/24 00:01:03;;;;;;;65.15;39.80;;;;;;;8.68;38.67;98621.22;4472406;32;34044;-83
2021/12/24 00:03:31;;;;;;;58.25;40.75;;;;;;;9.16;37.85;98626.03;4480703;32;33931;-84
2021/12/24 00:05:58;;;;;;;58.13;37.97;;;;;;;8.46;39.02;98641.63;4481454;32;34247;-84
2021/12/24 00:08:26;;;;;;;59.40;39.85;;;;;;;8.73;38.24;98629.87;4481310;32;33717;-81
2021/12/24 00:11:01;;;;;;;62.50;38.72;;;;;;;7.63;40.45;98642.13;4482565;32;33089;-85
2021/12/24 00:13:36;;;;;;;58.92;38.58;;;;;;;8.52;38.73;98630.47;4482410;32;34012;-81
2021/12/24 00:37:31;;;;;;;59.75;38.60;;;;;;;8.97;37.56;98578.44;4466790;32;33671;-81
2021/12/24 00:42:28;;;;;;;60.03;39.63;;;;;;;8.82;38.33;98551.56;4482137;32;33171;-83
2021/12/24 00:44:56;;;;;;;66.62;41.03;;;;;;;9.05;37.88;98550.06;4480857;32;33541;-82
2021/12/24 00:47:25;;;;;;;60.47;39.28;;;;;;;8.66;38.50;98548.84;4480654;32;34491;-85
2021/12/24 00:49:53;;;;;;;62.42;40.22;;;;;;;8.85;38.38;98538.69;4481034;32;34456;-83
2021/12/24 00:52:45;;;;;;;58.33;38.17;;;;;;;9.10;37.75;98544.97;4478277;32;33309;-80
2021/12/24 00:55:11;;;;;;;60.78;40.35;;;;;;;8.32;39.17;98533.78;4482172;32;34780;-83
2021/12/24 00:57:44;;;;;;;63.63;41.20;;;;;;;8.37;38.98;98520.13;4480886;32;33910;-85
2021/12/24 01:00:15;;;;;;;64.30;42.13;;;;;;;6.44;43.29;98506.03;4482494;32;34559;-84
2021/12/24 01:02:44;;;;;;;64.93;41.28;;;;;;;7.48;41.20;98510.34;4481771;32;33109;-84
2021/12/24 01:05:13;;;;;;;68.35;42.60;;;;;;;8.00;40.10;98503.31;4480849;32;34553;-81
2021/12/24 01:07:41;;;;;;;71.47;44.25;;;;;;;6.97;42.47;98490.63;4482306;32;33969;-81
2021/12/24 01:10:09;;;;;;;65.72;44.40;;;;;;;6.05;44.18;98458.97;4481392;32;33483;-81
2021/12/24 01:12:36;;;;;;;68.90;44.78;;;;;;;6.09;45.58;98494.22;4481847;32;34308;-82
2021/12/24 01:15:06;;;;;;;62.38;42.15;;;;;;;6.16;44.86;98472.06;4481797;32;33989;-83
2021/12/24 01:17:41;;;;;;;64.25;40.90;;;;;;;5.80;46.47;98470.47;4481429;32;34259;-81
2021/12/24 01:21:07;;;;;;;66.62;41.85;;;;;;;6.74;43.86;98457.66;4481056;32;33815;-83
2021/12/24 01:23:29;;;;;;;68.00;41.70;;;;;;;5.68;45.50;98444.47;4462181;32;31851;-83
2021/12/24 01:26:02;;;;;;;70.60;41.40;;;;;;;6.55;44.43;98437.56;4480899;32;33683;-83
2021/12/24 01:39:52;;;;;;;63.97;42.00;;;;;;;7.45;43.00;98469.03;4484037;32;34374;-84
2021/12/24 01:45:14;;;;;;;64.03;41.05;;;;;;;7.51;42.29;98441.59;4482525;32;33995;-82
2021/12/24 01:47:41;;;;;;;65.85;41.33;;;;;;;7.49;42.77;98457.91;4480252;32;34643;-85
2021/12/24 01:50:09;;;;;;;65.80;43.33;;;;;;;7.57;42.52;98457.16;4482924;32;34554;-83
2021/12/24 01:52:38;;;;;;;66.78;43.45;;;;;;;6.92;43.67;98474.25;4481384;32;33692;-85
2021/12/24 01:55:07;;;;;;;64.60;43.85;;;;;;;7.05;43.76;98435.81;4483842;32;34429;-86
2021/12/24 01:57:37;;;;;;;67.78;45.65;;;;;;;7.53;42.37;98433.88;4481872;32;33929;-82
2021/12/24 02:00:08;;;;;;;66.78;44.60;;;;;;;7.79;42.00;98421.31;4480391;32;33785;-82
2021/12/24 02:02:40;;;;;;;62.80;44.35;;;;;;;7.53;42.33;98419.25;4483366;32;34031;-86
2021/12/24 02:05:08;;;;;;;67.45;41.70;;;;;;;7.83;41.51;98422.22;4483664;32;33564;-85
2021/12/24 02:07:37;;;;;;;61.78;39.55;;;;;;;8.20;40.74;98403.69;4482416;32;33729;-83
2021/12/24 02:10:10;;;;;;;58.22;40.28;;;;;;;8.57;40.11;98404.06;4482529;32;35046;-81
2021/12/24 02:12:39;;;;;;;59.90;39.63;;;;;;;8.92;39.58;98403.47;4479873;32;33535;-82
2021/12/24 02:15:13;;;;;;;62.90;41.13;;;;;;;9.14;39.31;98376.91;4468159;32;33506;-82
2021/12/24 02:29:09;;;;;;;64.00;41.97;;;;;;;7.73;41.39;98380.84;4483344;32;33970;-86
2021/12/24 02:31:37;;;;;;;62.17;41.47;;;;;;;7.84;41.79;98369.75;4481533;32;33897;-83
2021/12/24 02:34:04;;;;;;;60.67;41.60;;;;;;;8.15;41.27;98379.56;4483426;32;33601;-83
2021/12/24 02:36:33;;;;;;;59.35;41.78;;;;;;;8.67;40.21;98385.19;4483299;32;34446;-83
2021/12/24 02:39:01;;;;;;;67.55;43.95;;;;;;;8.08;41.16;98353.66;4482026;32;34365;-85
2021/12/24 02:41:28;;;;;;;68.50;44.10;;;;;;;5.76;46.20;98340.09;4481511;32;34990;-85
2021/12/24 02:43:56;;;;;;;70.53;44.90;;;;;;;7.36;42.84;98329.66;4483363;32;33861;-82
2021/12/24 02:46:39;;;;;;;64.95;43.97;;;;;;;6.84;43.95;98316.97;4481936;32;33925;-82
2021/12/24 02:54:24;;;;;;;66.25;43.03;;;;;;;8.21;41.13;98284.06;4455456;32;33276;-82
2021/12/24 02:56:55;;;;;;;61.00;42.50;;;;;;;8.41;40.91;98288.53;4479124;31;33558;-82
2021/12/24 02:59:27;;;;;;;63.83;42.05;;;;;;;8.20;40.91;98299.56;4473688;32;34076;-83
2021/12/24 03:01:57;;;;;;;65.60;42.17;;;;;;;8.51;40.58;98290.34;4482736;32;33999;-82
2021/12/24 03:04:26;;;;;;;58.87;40.65;;;;;;;8.45;40.67;98305.81;4482326;32;33803;-85
2021/12/24 03:06:54;;;;;;;60.47;41.85;;;;;;;8.82;39.90;98311.22;4483326;32;33355;-82
2021/12/24 03:09:22;;;;;;;62.03;38.83;;;;;;;9.20;38.95;98309.69;4481808;32;34530;-85
2021/12/24 03:11:51;;;;;;;59.90;40.53;;;;;;;9.21;38.97;98336.44;4481649;32;33637;-84
2021/12/24 03:14:21;;;;;;;63.58;40.97;;;;;;;9.08;39.16;98325.13;4481712;32;34680;-83
2021/12/24 03:16:57;;;;;;;71.00;43.67;;;;;;;9.11;39.08;98342.41;4482251;32;34230;-83
2021/12/24 03:19:29;;;;;;;;;;;;;;;8.55;39.91;98348.06;4481909;32;34365;-82
2021/12/24 03:22:06;;;;;;;62.78;40.97;;;;;;;8.89;39.21;98368.13;4469000;32;34461;-82
2021/12/24 03:24:35;;;;;;;66.45;45.08;;;;;;;8.62;40.32;98380.84;4483201;32;33581;-83
2021/12/24 03:27:05;;;;;;;64.03;44.58;;;;;;;8.15;41.40;98343.41;4481772;32;33401;-82
2021/12/24 03:29:33;;;;;;;69.87;44.63;;;;;;;8.05;41.64;98357.06;4481678;32;33741;-83
2021/12/24 03:32:01;;;;;;;72.35;44.75;;;;;;;8.08;41.92;98330.44;4483199;32;33513;-85
2021/12/24 03:34:29;;;;;;;67.80;44.65;;;;;;;8.09;41.91;98321.81;4482544;32;33688;-82
2021/12/24 03:36:56;;;;;;;66.12;43.45;;;;;;;8.52;41.05;98328.22;4481684;32;34231;-84
2021/12/24 03:39:24;;;;;;;63.63;44.97;;;;;;;8.76;40.44;98323.25;4483299;32;33554;-83
2021/12/24 03:41:52;;;;;;;68.20;43.15;;;;;;;8.98;40.35;98323.38;4481711;32;35086;-83
2021/12/24 03:44:20;;;;;;;60.65;41.70;;;;;;;8.19;41.73;98316.75;4483396;32;34416;-86
2021/12/24 03:47:00;;;;;;;60.90;41.17;;;;;;;8.68;40.67;98314.59;4482691;32;33555;-83
2021/12/24 03:52:14;;;;;;;60.30;40.97;;;;;;;8.72;40.38;98295.66;4483152;32;34650;-84
2021/12/24 03:54:56;;;;;;;63.08;41.03;;;;;;;8.51;40.94;98296.38;4470105;32;33111;-86
2021/12/24 03:57:30;;;;;;;60.72;38.78;;;;;;;8.60;41.04;98292.13;4477979;32;33563;-83
2021/12/24 04:00:15;;;;;;;68.87;41.87;;;;;;;9.25;39.83;98295.06;4482024;32;32894;-86
2021/12/24 04:02:44;;;;;;;59.20;39.72;;;;;;;9.27;39.81;98293.34;4482613;32;34156;-84
2021/12/24 04:05:15;;;;;;;60.50;39.67;;;;;;;9.22;39.71;98271.78;4482898;32;33493;-82
2021/12/24 04:07:45;;;;;;;59.42;39.75;;;;;;;9.26;39.95;98268.34;4481739;32;34308;-82
2021/12/24 04:10:28;;;;;;;62.00;40.17;;;;;;;8.72;40.42;98258.63;4482378;32;34873;-83
2021/12/24 04:12:56;;;;;;;64.18;40.33;;;;;;;8.85;40.83;98260.41;4482813;32;34997;-82
2021/12/24 04:15:24;;;;;;;57.67;38.35;;;;;;;9.09;40.44;98257.09;4482706;32;33611;-83
2021/12/24 04:17:51;;;;;;;59.75;37.42;;;;;;;9.32;39.91;98240.75;4483130;32;34128;-81
2021/12/24 04:25:51;;;;;;;57.50;38.35;;;;;;;9.20;40.54;98220.88;4482912;32;33465;-84
2021/12/24 04:28:19;;;;;;;59.35;38.03;;;;;;;9.64;39.75;98227.91;4482408;32;33393;-82
2021/12/24 04:31:05;;;;;;;57.65;37.10;;;;;;;9.31;40.20;98219.19;4482419;32;34020;-86
2021/12/24 04:33:38;;;;;;;55.38;38.08;;;;;;;9.72;39.33;98221.00;4481302;32;35187;-82
2021/12/24 04:38:59;;;;;;;59.25;38.35;;;;;;;9.50;39.67;98213.19;4481982;32;34281;-83
2021/12/24 05:04:02;;;;;;;53.60;37.17;;;;;;;9.94;39.04;98201.16;4433249;32;34390;-83
2021/12/24 05:06:38;;;;;;;53.45;38.22;;;;;;;10.39;38.13;98199.44;4473810;31;36311;-84
2021/12/24 05:09:11;;;;;;;54.20;37.72;;;;;;;9.71;39.19;98212.38;4483661;32;33590;-83
2021/12/24 05:11:39;;;;;;;52.40;36.63;;;;;;;9.64;39.43;98200.28;4482918;32;32767;-83
2021/12/24 05:14:07;;;;;;;51.95;34.70;;;;;;;9.90;38.85;98195.13;4484239;32;33909;-82
2021/12/24 05:17:18;;;;;;;55.63;37.42;;;;;;;9.39;39.51;98201.09;4483615;32;34148;-86
2021/12/24 05:22:13;;;;;;;49.08;34.90;;;;;;;9.24;39.91;98205.41;4483924;32;33610;-86
2021/12/24 05:24:41;;;;;;;53.92;35.03;;;;;;;9.00;40.31;98198.41;4483795;32;33790;-83
2021/12/24 05:27:08;;;;;;;53.63;36.00;;;;;;;8.75;40.97;98204.34;4483949;32;34372;-83
2021/12/24 05:29:36;;;;;;;56.00;38.20;;;;;;;8.58;41.24;98201.69;4482485;32;33395;-84
2021/12/24 05:32:04;;;;;;;50.70;35.78;;;;;;;8.64;41.17;98201.75;4483486;32;33415;-84
2021/12/24 05:34:31;;;;;;;54.78;36.35;;;;;;;8.82;41.03;98203.53;4483277;32;34285;-85
2021/12/24 05:36:59;;;;;;;56.90;36.80;;;;;;;9.03;40.72;98197.56;4482242;32;34908;-83
2021/12/24 05:39:28;;;;;;;51.70;35.58;;;;;;;9.04;40.57;98194.13;4484189;32;33669;-83
2021/12/24 05:41:56;;;;;;;47.83;34.33;;;;;;;9.48;39.75;98190.78;4483954;32;34469;-83
2021/12/24 05:44:24;;;;;;;48.40;34.03;;;;;;;9.77;39.17;98182.16;4483602;32;33953;-83
2021/12/24 05:46:52;;;;;;;49.80;33.97;;;;;;;9.64;39.42;98210.63;4483738;32;34082;-86
2021/12/24 05:49:21;;;;;;;54.67;34.08;;;;;;;10.11;38.33;98214.94;4483571;32;34623;-84
2021/12/24 05:51:50;;;;;;;51.83;35.10;;;;;;;8.85;40.56;98218.19;4483393;32;33521;-84
2021/12/24 05:54:25;;;;;;;49.40;33.85;;;;;;;8.66;41.34;98215.50;4483938;32;34963;-84
2021/12/24 05:56:53;;;;;;;46.85;34.00;;;;;;;8.96;40.77;98221.69;4483818;31;34913;-84
2021/12/24 05:59:20;;;;;;;47.50;31.90;;;;;;;8.72;41.02;98217.28;4484213;32;32902;-84
2021/12/24 06:01:49;;;;;;;49.38;33.63;;;;;;;9.00;40.62;98228.59;4482058;32;33261;-84
2021/12/24 06:04:17;;;;;;;54.38;35.63;;;;;;;8.97;40.72;98234.59;4483957;32;34799;-84
2021/12/24 06:06:44;;;;;;;53.55;36.78;;;;;;;8.80;41.38;98240.56;4483210;32;34128;-83
2021/12/24 06:09:11;;;;;;;54.17;36.30;;;;;;;8.12;43.43;98234.09;4483594;32;33876;-84
2021/12/24 06:11:39;;;;;;;49.47;35.42;;;;;;;8.34;43.56;98224.78;4483557;32;33350;-84
2021/12/24 06:14:11;;;;;;;53.75;34.25;;;;;;;8.93;42.25;98221.66;4483653;32;34359;-84
2021/12/24 06:16:48;;;;;;;50.42;34.45;;;;;;;9.24;41.47;98228.69;4483056;32;33640;-86
2021/12/24 06:19:17;;;;;;;57.78;36.15;;;;;;;9.22;41.59;98214.88;4483024;32;34003;-83
2021/12/24 06:21:45;;;;;;;48.00;34.33;;;;;;;9.35;41.49;98204.56;4469201;32;34558;-85
2021/12/24 06:24:13;;;;;;;49.67;34.47;;;;;;;9.33;41.54;98207.16;4483571;32;33463;-83
2021/12/24 06:26:40;;;;;;;50.90;34.05;;;;;;;9.47;40.89;98200.28;4483958;32;35157;-83
2021/12/24 06:29:08;;;;;;;47.90;32.88;;;;;;;9.50;41.02;98199.41;4482895;32;34595;-83
2021/12/24 06:31:36;;;;;;;51.33;35.35;;;;;;;9.52;40.90;98199.44;4482432;32;33529;-82
2021/12/24 06:34:03;;;;;;;49.60;33.70;;;;;;;9.10;41.57;98193.31;4483438;32;34054;-85
2021/12/24 06:36:34;;;;;;;49.75;34.17;;;;;;;9.17;41.35;98187.28;4483323;32;33984;-83
2021/12/24 06:39:04;;;;;;;46.97;33.28;;;;;;;8.92;41.86;98199.25;4483638;32;34695;-84
2021/12/24 06:41:32;;;;;;;51.17;34.25;;;;;;;8.92;41.75;98191.50;4478947;32;33690;-84
2021/12/24 06:44:00;;;;;;;49.58;33.83;;;;;;;9.13;41.47;98181.25;4479040;32;35250;-84
2021/12/24 06:46:28;;;;;;;50.50;34.15;;;;;;;9.04;41.77;98194.13;4476701;32;34060;-85
2021/12/24 06:48:56;;;;;;;52.67;34.30;;;;;;;8.98;42.07;98184.66;4481571;32;33663;-82
2021/12/24 06:51:23;;;;;;;50.47;32.92;;;;;;;9.42;41.31;98191.62;4483252;32;33389;-83
2021/12/24 06:53:51;;;;;;;48.10;33.33;;;;;;;9.16;42.09;98188.13;4465461;32;34667;-83
2021/12/24 06:56:22;;;;;;;49.45;32.40;;;;;;;9.37;41.92;98192.50;4479613;32;34021;-83
2021/12/24 06:58:49;;;;;;;49.88;34.22;;;;;;;9.71;41.24;98189.09;4481275;32;33537;-83
2021/12/24 07:01:17;;;;;;;51.25;35.20;;;;;;;9.34;42.22;98183.00;4481715;32;34185;-83
2021/12/24 07:03:46;;;;;;;58.90;38.55;;;;;;;9.38;42.29;98186.47;4483072;32;33673;-83
2021/12/24 07:06:15;;;;;;;61.70;40.55;;;;;;;9.81;41.58;98183.91;4483196;32;35250;-83
2021/12/24 07:08:42;;;;;;;68.68;45.03;;;;;;;8.93;42.42;98183.75;4481626;32;34585;-82
2021/12/24 07:11:10;;;;;;;70.55;44.47;;;;;;;8.82;42.97;98189.72;4481645;32;33063;-82
2021/12/24 07:13:37;;;;;;;68.22;46.72;;;;;;;8.86;42.32;98200.09;4482851;32;33755;-82
2021/12/24 07:16:05;;;;;;;77.05;46.55;;;;;;;8.85;42.50;98182.00;4481221;32;33924;-84
2021/12/24 07:18:33;;;;;;;68.57;44.70;;;;;;;9.23;41.84;98190.72;4482449;32;33412;-82
2021/12/24 07:21:01;;;;;;;67.03;45.05;;;;;;;9.65;40.75;98183.91;4481662;32;34356;-83
2021/12/24 07:23:28;;;;;;;69.87;45.35;;;;;;;9.87;40.59;98196.84;4479752;32;33731;-83
2021/12/24 07:25:56;;;;;;;69.60;47.03;;;;;;;9.61;41.07;98195.09;4473726;32;33913;-83
2021/12/24 07:28:23;;;;;;;62.90;43.03;;;;;;;9.60;41.57;98195.13;4481805;32;33394;-83
2021/12/24 07:30:51;;;;;;;70.43;44.38;;;;;;;9.59;41.63;98204.59;4480935;32;34334;-84
2021/12/24 07:33:19;;;;;;;64.85;43.72;;;;;;;9.70;41.35;98202.03;4482273;32;33347;-83
2021/12/24 07:35:46;;;;;;;73.97;45.15;;;;;;;9.89;41.26;98200.31;4480892;32;34141;-83
2021/12/24 07:38:14;;;;;;;67.43;44.05;;;;;;;10.36;40.47;98214.97;4482453;32;34657;-82
2021/12/24 07:40:42;;;;;;;64.62;42.90;;;;;;;9.93;41.72;98220.16;4483100;32;33543;-83
2021/12/24 07:43:10;;;;;;;65.43;43.67;;;;;;;9.87;41.90;98230.50;4482876;32;34554;-83
2021/12/24 07:45:39;;;;;;;66.07;43.90;;;;;;;9.90;41.93;98220.16;4480997;32;34253;-83
2021/12/24 07:48:15;;;;;;;58.63;38.28;;;;;;;9.62;42.58;98222.72;4482125;32;33848;-84
2021/12/24 07:53:15;;;;;;;60.90;40.58;;;;;;;8.73;44.85;98183.69;4482167;32;35048;-84
2021/12/24 07:55:43;;;;;;;56.63;37.63;;;;;;;9.13;44.39;98183.84;4479849;32;33294;-84
2021/12/24 07:58:13;;;;;;;56.47;37.33;;;;;;;9.43;43.78;98166.63;4481078;32;34221;-82
2021/12/24 08:00:42;;;;;;;56.88;37.97;;;;;;;9.16;44.22;98177.78;4473518;32;34329;-82
2021/12/24 08:03:10;;;;;;;57.78;37.35;;;;;;;9.34;43.79;98170.06;4481170;32;33726;-83
2021/12/24 08:05:40;;;;;;;56.00;38.42;;;;;;;9.40;43.64;98166.63;4480786;32;34967;-82
2021/12/24 08:08:11;;;;;;;53.83;37.08;;;;;;;10.06;42.56;98172.66;4482466;32;33599;-83
2021/12/24 08:10:41;;;;;;;55.47;36.65;;;;;;;10.11;42.78;98189.06;4480376;32;34467;-84
2021/12/24 08:13:09;;;;;;;54.05;34.95;;;;;;;9.64;43.87;98160.62;4481362;32;33821;-83
2021/12/24 08:15:36;;;;;;;55.72;35.78;;;;;;;9.69;43.93;98185.63;4479273;32;35122;-83
2021/12/24 08:18:09;;;;;;;50.22;33.55;;;;;;;9.01;45.93;98155.34;4479127;32;34174;-83
2021/12/24 08:20:37;;;;;;;54.92;36.58;;;;;;;9.34;45.14;98162.31;4481887;32;33523;-83
2021/12/24 08:23:04;;;;;;;53.05;35.67;;;;;;;9.59;44.97;98180.47;4482356;32;33566;-83
2021/12/24 08:25:32;;;;;;;52.08;33.70;;;;;;;9.58;45.13;98166.63;4473023;32;34406;-82
2021/12/24 08:27:59;;;;;;;49.22;31.40;;;;;;;9.79;44.91;98154.56;4482152;32;33522;-83
2021/12/24 08:30:27;;;;;;;45.17;29.33;;;;;;;9.73;44.57;98140.75;4472450;32;33667;-82
2021/12/24 08:32:56;;;;;;;46.03;30.62;;;;;;;9.71;45.22;98147.69;4482160;32;34062;-83
2021/12/24 08:35:24;;;;;;;44.22;29.83;;;;;;;9.62;45.97;98147.69;4481725;32;34216;-83
2021/12/24 08:37:52;;;;;;;44.00;29.45;;;;;;;9.72;45.93;98157.16;4480496;32;33546;-84
2021/12/24 08:40:19;;;;;;;43.75;28.10;;;;;;;10.08;45.30;98147.66;4481865;32;33242;-84
2021/12/24 08:42:47;;;;;;;43.38;28.38;;;;;;;10.33;45.04;98140.69;4478607;32;34154;-82
2021/12/24 08:45:14;;;;;;;40.83;27.80;;;;;;;10.82;43.95;98148.28;4482029;32;33773;-84
2021/12/24 08:47:42;;;;;;;42.92;28.80;;;;;;;10.50;44.81;98119.94;4482368;32;33562;-82
2021/12/24 08:50:12;;;;;;;47.10;30.02;;;;;;;9.96;46.69;98132.09;4478481;32;32235;-82
2021/12/24 08:52:42;;;;;;;38.00;26.33;;;;;;;10.35;45.99;98131.22;4478222;32;33869;-83
2021/12/24 08:55:10;;;;;;;41.85;27.30;;;;;;;10.46;45.40;98146.72;4478315;32;33804;-81
2021/12/24 08:57:39;;;;;;;41.33;27.90;;;;;;;10.31;46.25;98139.00;4480215;32;34561;-82
2021/12/24 09:00:09;;;;;;;39.63;24.98;;;;;;;10.77;45.54;98149.19;4480410;32;34227;-83
2021/12/24 09:02:37;;;;;;;38.70;23.75;;;;;;;10.36;46.21;98139.84;4476969;32;33994;-81
2021/12/24 09:05:06;;;;;;;36.53;25.15;;;;;;;11.17;44.33;98134.28;4479760;32;34954;-82
2021/12/24 09:07:34;;;;;;;38.80;24.50;;;;;;;10.32;46.38;98125.19;4481392;32;34714;-81
2021/12/24 09:10:03;;;;;;;37.92;24.83;;;;;;;9.99;47.18;98113.97;4479530;32;34151;-81
2021/12/24 09:12:31;;;;;;;36.22;23.58;;;;;;;10.77;45.15;98129.31;4480612;32;34290;-83
2021/12/24 09:14:58;;;;;;;39.90;26.08;;;;;;;10.53;45.55;98127.69;4477355;32;35787;-82
2021/12/24 09:17:28;;;;;;;35.65;22.98;;;;;;;10.93;44.90;98140.47;4479331;32;34786;-82
2021/12/24 09:19:56;;;;;;;36.50;24.10;;;;;;;11.35;43.90;98144.53;4475514;32;34061;-81
2021/12/24 09:22:30;;;;;;;33.03;22.60;;;;;;;10.27;46.09;98143.31;4478090;32;34027;-83
2021/12/24 09:24:58;;;;;;;35.08;23.25;;;;;;;10.59;46.11;98150.13;4464382;32;34341;-82
2021/12/24 09:27:25;;;;;;;34.22;23.15;;;;;;;11.04;45.25;98141.28;4480456;32;33540;-82
2021/12/24 09:29:53;;;;;;;65.93;41.60;;;;;;;11.09;45.05;98131.72;4474110;32;33523;-80
2021/12/24 09:32:21;;;;;;;35.97;23.87;;;;;;;11.35;44.75;98117.72;4481623;32;33691;-80
2021/12/24 09:34:48;;;;;;;31.25;21.40;;;;;;;11.71;43.92;98100.16;4480611;32;33709;-82
2021/12/24 09:37:16;;;;;;;37.72;23.35;;;;;;;11.60;44.31;98093.31;4481246;32;34016;-82
2021/12/24 09:39:43;;;;;;;34.22;21.90;;;;;;;11.28;45.18;98092.69;4481266;32;33639;-86
2021/12/24 09:42:11;;;;;;;39.00;23.92;;;;;;;11.58;44.95;98097.66;4480291;32;33977;-82
2021/12/24 09:44:38;;;;;;;38.08;23.62;;;;;;;10.42;47.41;98100.97;4481614;32;34188;-82
2021/12/24 09:47:06;;;;;;;58.25;38.97;;;;;;;11.68;44.09;98095.84;4479614;32;33958;-83
2021/12/24 09:49:34;;;;;;;57.65;38.83;;;;;;;11.56;44.50;98095.97;4479610;32;33075;-83
2021/12/24 09:52:03;;;;;;;45.63;28.17;;;;;;;11.91;43.89;98077.47;4480094;32;34446;-83
2021/12/24 09:54:31;;;;;;;44.25;27.10;;;;;;;12.00;43.27;98069.59;4482897;32;34644;-84
2021/12/24 09:57:01;;;;;;;37.80;24.37;;;;;;;11.65;43.93;98060.38;4483359;32;33727;-85
2021/12/24 09:59:28;;;;;;;39.33;25.00;;;;;;;11.67;43.68;98063.84;4484110;32;34367;-85
2021/12/24 10:02:00;;;;;;;41.75;26.12;;;;;;;11.37;44.61;98049.37;4481578;32;32769;-86
2021/12/24 10:04:31;;;;;;;39.03;25.80;;;;;;;11.60;44.69;98051.78;4482285;32;33833;-85
2021/12/24 10:07:03;;;;;;;37.15;23.87;;;;;;;11.75;44.64;98047.31;4483884;32;34343;-87
2021/12/24 10:09:34;;;;;;;34.65;20.60;;;;;;;12.17;43.64;98062.47;4483352;32;33502;-85
2021/12/24 10:12:08;;;;;;;29.67;19.75;;;;;;;11.95;44.33;98048.00;4483431;32;33893;-83
2021/12/24 10:14:38;;;;;;;;;;;;;;;11.82;44.41;98043.75;4483907;32;33956;-85
2021/12/24 10:17:15;;;;;;;34.00;21.23;;;;;;;12.81;42.64;98028.75;4482646;32;33761;-85
2021/12/24 10:19:47;;;;;;;37.38;22.15;;;;;;;11.66;45.19;98030.94;4483231;32;33339;-84
2021/12/24 10:22:15;;;;;;;28.62;18.90;;;;;;;11.66;45.23;98030.06;4483663;32;34866;-84
2021/12/24 10:24:57;;;;;;;32.45;19.27;;;;;;;12.04;44.40;98032.31;4483702;32;34997;-84
2021/12/24 10:27:29;;;;;;;30.77;18.58;;;;;;;12.36;44.02;98033.69;4482207;32;33926;-83
2021/12/24 10:29:57;;;;;;;26.77;17.87;;;;;;;12.11;44.38;98028.75;4483132;32;33084;-84
2021/12/24 10:32:24;;;;;;;24.02;16.15;;;;;;;12.18;44.34;98040.81;4483413;32;34191;-84
2021/12/24 10:34:52;;;;;;;25.10;16.27;;;;;;;12.05;44.68;98028.84;4482290;32;34076;-83
2021/12/24 10:37:24;;;;;;;26.45;15.65;;;;;;;12.63;43.79;98016.84;4482357;32;34010;-83
2021/12/24 10:39:57;;;;;;;25.40;15.55;;;;;;;12.96;43.09;98023.31;4468786;32;33141;-83
2021/12/24 10:42:32;;;;;;;22.75;14.82;;;;;;;13.58;41.74;98021.44;4483559;32;33525;-83
2021/12/24 10:45:02;;;;;;;24.85;15.38;;;;;;;12.71;43.73;98024.53;4483172;32;33856;-83
2021/12/24 10:47:39;;;;;;;117.18;65.70;;;;;;;12.81;43.47;98024.41;4482112;32;33895;-84
2021/12/24 10:55:45;;;;;;;29.67;18.60;;;;;;;11.71;46.80;98017.06;4481871;31;33510;-83
2021/12/24 10:58:16;;;;;;;22.25;13.38;;;;;;;12.77;44.21;98001.06;4479384;32;33936;-83
2021/12/24 11:00:48;;;;;;;22.48;13.02;;;;;;;12.30;44.65;98012.94;4466441;32;33160;-83
2021/12/24 11:03:21;;;;;;;21.92;13.00;;;;;;;12.78;43.53;98000.16;4471959;32;34775;-84
2021/12/24 11:06:09;;;;;;;20.00;13.43;;;;;;;12.02;45.13;98007.25;4482885;32;35046;-83
2021/12/24 11:08:37;;;;;;;21.05;12.05;;;;;;;11.95;45.68;98011.63;4482043;32;34668;-84
2021/12/24 11:11:07;;;;;;;17.87;11.57;;;;;;;12.12;45.12;98004.53;4468883;32;33382;-85
2021/12/24 11:13:45;;;;;;;20.77;12.20;;;;;;;12.32;44.40;98008.59;4483205;32;33607;-86
2021/12/24 11:16:22;;;;;;;18.77;11.82;;;;;;;12.56;43.90;98003.06;4482114;32;34681;-83
2021/12/24 11:19:02;;;;;;;17.37;11.32;;;;;;;12.26;44.59;98011.28;4483261;32;33776;-84
2021/12/24 11:21:31;;;;;;;18.73;11.35;;;;;;;12.92;43.08;98006.03;4482868;32;33573;-85
2021/12/24 11:23:59;;;;;;;20.48;12.30;;;;;;;12.57;43.49;98007.38;4481700;32;34599;-83
2021/12/24 11:26:30;;;;;;;17.83;10.63;;;;;;;12.86;43.10;97996.56;4481817;32;33512;-83
2021/12/24 11:28:58;;;;;;;19.50;11.43;;;;;;;11.87;44.71;98003.06;4483350;32;33628;-84
2021/12/24 11:31:28;;;;;;;18.70;11.12;;;;;;;12.44;44.17;98005.84;4482934;32;34277;-82
2021/12/24 11:33:58;;;;;;;21.45;12.27;;;;;;;12.14;44.59;98002.75;4483184;32;33685;-85
2021/12/24 11:36:30;;;;;;;18.45;11.05;;;;;;;11.61;45.29;98006.78;4483451;32;35125;-83
2021/12/24 11:38:59;;;;;;;20.50;11.35;;;;;;;11.92;45.40;97996.94;4481744;32;33985;-83
2021/12/24 11:41:31;;;;;;;19.42;11.18;;;;;;;11.91;45.54;97999.56;4482758;32;34429;-84
2021/12/24 11:44:01;;;;;;;20.12;11.38;;;;;;;12.10;45.34;97987.22;4482784;32;34310;-83
2021/12/24 11:46:29;;;;;;;19.67;10.57;;;;;;;12.21;45.08;97987.94;4481454;32;33777;-84
2021/12/24 11:48:56;;;;;;;18.35;10.25;;;;;;;12.44;44.45;97979.84;4481676;32;34660;-84
2021/12/24 11:51:27;;;;;;;17.27;10.95;;;;;;;12.74;43.91;97977.69;4482908;32;33327;-84
2021/12/24 11:53:59;;;;;;;16.80;10.25;;;;;;;13.18;42.70;97983.91;4481785;32;33656;-84
2021/12/24 11:56:27;;;;;;;16.65;10.43;;;;;;;13.40;42.16;97993.12;4482908;31;34250;-84
2021/12/24 11:58:57;;;;;;;19.48;10.25;;;;;;;13.32;42.50;97993.25;4481240;32;33755;-84
2021/12/24 12:01:27;;;;;;;18.90;10.23;;;;;;;12.78;43.63;97987.16;4483013;32;32688;-84
2021/12/24 12:03:57;;;;;;;19.05;10.45;;;;;;;13.24;43.16;97976.91;4482870;32;34029;-84
2021/12/24 12:06:24;;;;;;;19.40;10.50;;;;;;;13.22;43.08;97962.16;4482994;32;34125;-83
2021/12/24 12:08:56;;;;;;;16.58;10.30;;;;;;;13.72;41.96;97970.88;4482479;32;34555;-83
2021/12/24 12:11:28;;;;;;;18.23;10.73;;;;;;;13.46;42.84;97973.94;4482968;32;34700;-82
2021/12/24 12:14:10;;;;;;;19.58;10.10;;;;;;;13.84;41.80;97976.69;4481653;32;33620;-83
2021/12/24 12:16:41;;;;;;;16.98;10.38;;;;;;;13.20;43.36;97977.81;4482382;32;35647;-84
2021/12/24 12:19:21;;;;;;;18.90;10.68;;;;;;;13.45;43.30;97978.31;4482645;32;33540;-83
2021/12/24 12:22:16;;;;;;;15.90;10.82;;;;;;;13.32;43.33;97979.38;4468855;32;32575;-84
2021/12/24 12:24:57;;;;;;;19.40;9.95;;;;;;;12.51;44.68;97980.63;4482841;32;34075;-82
2021/12/24 12:27:43;;;;;;;18.50;9.50;;;;;;;12.64;45.53;97980.41;4482979;32;35045;-83
2021/12/24 12:30:16;;;;;;;19.73;10.70;;;;;;;13.31;43.74;97981.13;4482439;32;34449;-83
2021/12/24 12:32:45;;;;;;;18.80;10.57;;;;;;;13.09;44.68;97980.59;4481208;32;33134;-83
2021/12/24 12:35:13;;;;;;;16.85;10.32;;;;;;;13.05;44.33;97994.53;4481192;32;34754;-83
2021/12/24 12:37:42;;;;;;;18.42;10.40;;;;;;;12.93;45.19;97989.53;4482210;32;35049;-84
2021/12/24 12:40:31;;;;;;;16.95;10.05;;;;;;;14.08;42.78;97984.91;4482387;32;33695;-83
2021/12/24 12:43:19;;;;;;;17.98;10.25;;;;;;;14.22;43.00;97975.06;4482708;32;34285;-84
2021/12/24 12:45:48;;;;;;;17.25;10.27;;;;;;;14.24;42.87;97982.84;4481826;32;33978;-84
2021/12/24 12:48:23;;;;;;;16.90;10.20;;;;;;;14.06;43.48;97984.09;4481268;31;33850;-83
2021/12/24 12:51:00;;;;;;;16.77;9.93;;;;;;;13.87;44.41;97986.19;4466884;32;33754;-83
2021/12/24 12:53:34;;;;;;;18.95;10.27;;;;;;;14.23;44.56;97978.53;4480374;32;33615;-84
2021/12/24 12:56:17;;;;;;;18.70;10.68;;;;;;;14.22;44.77;97984.62;4465839;32;34853;-83
2021/12/24 12:59:03;;;;;;;17.25;10.25;;;;;;;14.56;44.26;97985.66;4452077;32;34269;-82
2021/12/24 13:01:31;;;;;;;19.58;10.45;;;;;;;13.95;46.09;97994.72;4479067;32;34730;-82
2021/12/24 13:04:00;;;;;;;16.73;10.32;;;;;;;14.29;45.71;97986.22;4480628;32;33502;-83
2021/12/24 13:06:36;;;;;;;18.45;11.52;;;;;;;14.07;46.55;97983.19;4482010;32;33563;-83
2021/12/24 13:09:05;;;;;;;21.98;10.73;;;;;;;14.43;46.15;97976.34;4481981;32;34124;-83
2021/12/24 13:11:39;;;;;;;19.80;10.82;;;;;;;15.00;45.00;97980.28;4480686;32;33819;-82
2021/12/24 13:14:06;;;;;;;21.05;10.48;;;;;;;13.78;47.36;97984.59;4480791;32;32986;-83
2021/12/24 13:16:34;;;;;;;16.83;10.68;;;;;;;13.80;47.79;97984.59;4481831;32;33913;-83